createdAt,value
2023-04-22T03:00:36.930Z,100325.21
2023-04-22T03:03:05.926Z,100325.09
2023-04-22T03:05:36.215Z,100329.45
2023-04-22T03:08:05.186Z,100328.63
2023-04-22T03:10:34.119Z,100325.80
2023-04-22T03:13:03.928Z,100325.08
2023-04-22T03:15:34.493Z,100321.79
2023-04-22T03:18:03.950Z,100326.08
2023-04-22T03:20:32.968Z,100326.80
2023-04-22T03:23:02.071Z,100323.83
2023-04-22T03:25:32.315Z,100322.45
2023-04-22T03:28:03.356Z,100322.67
2023-04-22T03:30:34.043Z,100322.61
2023-04-22T03:33:02.870Z,100326.95
2023-04-22T03:35:43.965Z,100325.52
2023-04-22T03:38:13.376Z,100326.18
2023-04-22T03:40:43.755Z,100327.73
2023-04-22T03:43:23.862Z,100324.58
2023-04-22T03:46:01.201Z,100325.30
2023-04-22T03:48:36.668Z,100324.29
2023-04-22T03:51:12.165Z,100331.45
2023-04-22T03:53:43.875Z,100330.73
2023-04-22T03:56:16.015Z,100329.67
2023-04-22T03:58:47.105Z,100333.15
2023-04-22T04:01:18.645Z,100335.31
2023-04-22T04:03:51.631Z,100336.08
2023-04-22T04:06:21.457Z,100334.83
2023-04-22T04:08:50.100Z,100334.36
2023-04-22T04:11:19.300Z,100333.33
2023-04-22T04:13:49.457Z,100334.59
2023-04-22T04:16:31.438Z,100339.09
2023-04-22T04:19:07.108Z,100338.14
2023-04-22T04:21:37.911Z,100333.60
2023-04-22T04:24:07.637Z,100329.55
2023-04-22T04:26:40.754Z,100332.12
2023-04-22T04:29:21.374Z,100330.29
2023-04-22T04:31:59.059Z,100329.64
2023-04-22T04:34:35.382Z,100324.13
2023-04-22T04:37:04.906Z,100322.73
2023-04-22T04:40:00.120Z,100321.59
2023-04-22T04:42:37.961Z,100324.16
2023-04-22T04:45:10.045Z,100323.02
2023-04-22T04:47:39.593Z,100322.70
2023-04-22T04:50:16.454Z,100326.59
2023-04-22T04:52:46.665Z,100322.61
2023-04-22T04:55:15.830Z,100323.77
2023-04-22T04:57:45.556Z,100318.78
2023-04-22T05:00:15.179Z,100322.80
2023-04-22T05:02:44.136Z,100321.89
2023-04-22T05:05:13.215Z,100320.96
2023-04-22T05:07:42.001Z,100315.05
2023-04-22T05:10:11.773Z,100322.02
2023-04-22T05:12:44.622Z,100317.73
2023-04-22T05:15:16.310Z,100314.29
2023-04-22T05:17:45.121Z,100314.21
2023-04-22T05:20:14.980Z,100318.74
2023-04-22T05:22:45.525Z,100315.94
2023-04-22T05:25:17.454Z,100318.95
2023-04-22T05:27:54.303Z,100315.52
2023-04-22T05:30:23.237Z,100316.58
2023-04-22T05:32:52.177Z,100313.52
2023-04-22T05:35:21.470Z,100304.34
2023-04-22T05:37:50.389Z,100302.41
2023-04-22T05:40:20.342Z,100304.15
2023-04-22T05:42:49.230Z,100302.44
2023-04-22T05:45:17.883Z,100302.94
2023-04-22T05:47:47.378Z,100304.38
2023-04-22T05:50:16.438Z,100303.83
2023-04-22T05:52:55.038Z,100299.75
2023-04-22T05:55:23.754Z,100298.92
2023-04-22T05:57:52.669Z,100295.29
2023-04-22T06:00:40.309Z,100296.09
2023-04-22T06:03:24.087Z,100288.96
2023-04-22T06:05:53.296Z,100289.59
2023-04-22T06:08:21.783Z,100288.67
2023-04-22T06:10:52.444Z,100292.83
2023-04-22T06:13:23.433Z,100295.63
2023-04-22T06:15:53.533Z,100299.50
2023-04-22T06:18:22.558Z,100297.71
2023-04-22T06:20:52.606Z,100294.61
2023-04-22T06:23:21.788Z,100297.02
2023-04-22T06:25:50.355Z,100297.30
2023-04-22T06:28:19.614Z,100296.08
2023-04-22T06:30:49.000Z,100296.91
2023-04-22T06:33:18.144Z,100296.34
2023-04-22T06:35:46.709Z,100294.50
2023-04-22T06:38:15.176Z,100295.64
2023-04-22T06:40:55.862Z,100295.79
2023-04-22T06:43:27.863Z,100293.25
2023-04-22T06:46:17.680Z,100295.02
2023-04-22T06:49:06.148Z,100293.68
2023-04-22T06:52:06.819Z,100292.05
2023-04-22T06:54:36.398Z,100289.44
2023-04-22T06:57:05.269Z,100288.88
2023-04-22T06:59:34.415Z,100285.17
2023-04-22T07:02:03.620Z,100287.60
2023-04-22T07:04:34.044Z,100284.13
2023-04-22T07:07:03.768Z,100286.92
2023-04-22T07:09:33.127Z,100285.30
2023-04-22T07:12:03.267Z,100285.14
2023-04-22T07:14:33.668Z,100286.20
2023-04-22T07:17:02.697Z,100283.76
2023-04-22T07:19:33.272Z,100280.94
2023-04-22T07:22:04.733Z,100281.04
2023-04-22T07:24:33.649Z,100283.50
2023-04-22T07:27:02.999Z,100281.45
2023-04-22T07:29:31.954Z,100277.34
2023-04-22T07:32:00.832Z,100276.80
2023-04-22T07:34:29.218Z,100276.08
2023-04-22T07:36:58.324Z,100273.23
2023-04-22T07:39:27.609Z,100278.79
2023-04-22T07:41:57.996Z,100280.72
2023-04-22T07:44:26.196Z,100281.45
2023-04-22T07:46:56.313Z,100282.26
2023-04-22T07:49:24.966Z,100283.23
2023-04-22T07:51:54.133Z,100283.39
2023-04-22T07:54:23.443Z,100280.52
2023-04-22T07:56:52.422Z,100279.38
2023-04-22T07:59:21.505Z,100282.44
2023-04-22T08:01:49.788Z,100282.63
2023-04-22T08:04:19.093Z,100285.71
2023-04-22T08:06:48.426Z,100280.96
2023-04-22T08:09:16.805Z,100283.02
2023-04-22T08:11:45.946Z,100285.28
2023-04-22T08:14:15.004Z,100283.49
2023-04-22T08:16:43.708Z,100285.58
2023-04-22T08:19:12.460Z,100282.33
2023-04-22T08:21:40.792Z,100281.42
2023-04-22T08:24:09.609Z,100281.21
2023-04-22T08:26:38.734Z,100279.00
2023-04-22T08:29:07.377Z,100277.87
2023-04-22T08:31:35.608Z,100278.79
2023-04-22T08:34:04.307Z,100278.95
2023-04-22T08:36:32.899Z,100279.52
2023-04-22T08:39:01.413Z,100279.73
2023-04-22T08:41:31.221Z,100279.46
2023-04-22T08:44:00.188Z,100277.75
2023-04-22T08:46:28.985Z,100281.10
2023-04-22T08:49:03.516Z,100277.30
2023-04-22T08:51:34.243Z,100280.18
2023-04-22T08:54:02.459Z,100276.50
2023-04-22T08:56:31.810Z,100278.17
2023-04-22T08:59:00.336Z,100277.60
2023-04-22T09:01:31.588Z,100279.67
2023-04-22T09:04:01.353Z,100276.47
2023-04-22T09:06:30.706Z,100270.75
2023-04-22T09:08:59.338Z,100265.45
2023-04-22T09:11:28.473Z,100260.60
2023-04-22T09:13:57.450Z,100261.69
2023-04-22T09:16:25.913Z,100260.73
2023-04-22T09:18:54.707Z,100260.85
2023-04-22T09:21:28.457Z,100261.27
2023-04-22T09:23:58.087Z,100258.22
2023-04-22T09:26:26.706Z,100249.92
2023-04-22T09:28:56.725Z,100251.09
2023-04-22T09:31:26.032Z,100250.27
2023-04-22T09:33:56.612Z,100248.11
2023-04-22T09:36:29.230Z,100241.38
2023-04-22T09:38:59.607Z,100244.45
2023-04-22T09:41:35.870Z,100239.59
2023-04-22T09:44:08.084Z,100245.36
2023-04-22T09:46:36.422Z,100241.55
2023-04-22T09:49:04.869Z,100242.52
2023-04-22T09:51:34.930Z,100236.90
2023-04-22T09:54:11.811Z,100242.36
2023-04-22T09:57:12.285Z,100239.02
2023-04-22T09:59:41.557Z,100233.44
2023-04-22T10:02:10.928Z,100228.08
2023-04-22T10:04:39.501Z,100227.14
2023-04-22T10:07:08.139Z,100224.34
2023-04-22T10:09:36.545Z,100222.02
2023-04-22T10:12:05.132Z,100213.64
2023-04-22T10:14:33.994Z,100214.54
2023-04-22T10:17:04.354Z,100214.96
2023-04-22T10:19:33.606Z,100211.09
2023-04-22T10:22:04.264Z,100204.52
2023-04-22T10:24:37.624Z,100210.80
2023-04-22T10:27:11.058Z,100201.80
2023-04-22T10:29:40.932Z,100203.96
2023-04-22T10:32:18.957Z,100206.45
2023-04-22T10:34:48.292Z,100202.26
2023-04-22T10:37:20.963Z,100195.48
2023-04-22T10:40:09.060Z,100199.36
2023-04-22T10:42:43.082Z,100199.54
2023-04-22T10:45:15.265Z,100196.44
2023-04-22T10:47:44.588Z,100191.56
2023-04-22T10:50:13.517Z,100194.13
2023-04-22T10:52:43.265Z,100190.41
2023-04-22T10:55:13.418Z,100193.01
2023-04-22T10:57:46.309Z,100187.58
2023-04-22T11:00:21.683Z,100185.40
2023-04-22T11:03:05.527Z,100178.80
2023-04-22T11:05:35.801Z,100181.66
2023-04-22T11:08:09.179Z,100177.33
2023-04-22T11:10:44.115Z,100175.02
2023-04-22T11:13:22.733Z,100178.80
2023-04-22T11:15:56.156Z,100177.19
2023-04-22T11:18:29.771Z,100177.90
2023-04-22T11:21:03.498Z,100172.27
2023-04-22T11:23:31.854Z,100173.26
2023-04-22T11:26:01.884Z,100167.73
2023-04-22T11:28:30.727Z,100166.48
2023-04-22T11:31:02.604Z,100162.11
2023-04-22T11:33:38.735Z,100157.73
2023-04-22T11:36:10.781Z,100159.09
2023-04-22T11:38:39.346Z,100157.41
2023-04-22T11:41:08.129Z,100155.96
2023-04-22T11:43:45.896Z,100154.59
2023-04-22T11:46:14.505Z,100151.59
2023-04-22T11:48:43.035Z,100151.63
2023-04-22T11:51:11.982Z,100153.84
2023-04-22T11:53:49.837Z,100150.19
2023-04-22T11:56:18.113Z,100152.27
2023-04-22T11:58:47.610Z,100145.78
2023-04-22T12:01:16.462Z,100146.29
2023-04-22T12:03:44.917Z,100139.54
2023-04-22T12:06:13.516Z,100135.34
2023-04-22T12:08:44.681Z,100135.02
2023-04-22T12:11:13.628Z,100139.30
2023-04-22T12:13:43.663Z,100136.02
2023-04-22T12:16:19.968Z,100134.76
2023-04-22T12:18:49.186Z,100132.00
2023-04-22T12:21:19.475Z,100130.55
2023-04-22T12:23:49.321Z,100131.38
2023-04-22T12:26:18.467Z,100126.04
2023-04-22T12:28:47.583Z,100122.98
2023-04-22T12:31:16.847Z,100123.03
2023-04-22T12:33:46.845Z,100122.84
2023-04-22T12:36:15.853Z,100119.11
2023-04-22T12:38:44.438Z,100116.44
2023-04-22T12:41:12.530Z,100112.08
2023-04-22T12:43:41.189Z,100111.17
2023-04-22T12:46:10.586Z,100108.27
2023-04-22T12:48:39.293Z,100106.98
2023-04-22T12:51:07.467Z,100109.40
2023-04-22T12:53:35.527Z,100107.20
2023-04-22T12:56:03.639Z,100103.52
2023-04-22T12:58:31.666Z,100097.49
2023-04-22T13:00:59.753Z,100098.10
2023-04-22T13:03:28.824Z,100100.40
2023-04-22T13:05:57.937Z,100096.66
2023-04-22T13:08:27.930Z,100099.42
2023-04-22T13:10:57.309Z,100096.89
2023-04-22T13:13:26.365Z,100097.14
2023-04-22T13:15:55.109Z,100092.89
2023-04-22T13:18:24.640Z,100090.63
2023-04-22T13:20:55.666Z,100086.06
2023-04-22T13:23:26.521Z,100086.15
2023-04-22T13:25:55.274Z,100082.13
2023-04-22T13:28:24.181Z,100081.48
2023-04-22T13:30:52.816Z,100078.85
2023-04-22T13:33:21.812Z,100076.96
2023-04-22T13:35:49.995Z,100079.63
2023-04-22T13:38:18.507Z,100074.42
2023-04-22T13:40:47.033Z,100073.89
2023-04-22T13:43:15.667Z,100073.19
2023-04-22T13:45:44.374Z,100075.13
2023-04-22T13:48:13.516Z,100073.19
2023-04-22T13:50:42.918Z,100069.56
2023-04-22T13:53:12.603Z,100063.45
2023-04-22T13:55:43.695Z,100063.90
2023-04-22T13:58:12.226Z,100065.41
2023-04-22T14:00:40.931Z,100056.56
2023-04-22T14:03:09.830Z,100058.48
2023-04-22T14:05:39.072Z,100052.84
2023-04-22T14:08:08.388Z,100049.00
2023-04-22T14:10:37.668Z,100049.32
2023-04-22T14:13:06.939Z,100049.38
2023-04-22T14:15:36.382Z,100051.39
2023-04-22T14:18:05.206Z,100049.71
2023-04-22T14:20:34.712Z,100041.79
2023-04-22T14:23:05.561Z,100042.15
2023-04-22T14:25:34.203Z,100038.24
2023-04-22T14:28:03.745Z,100044.23
2023-04-22T14:30:32.199Z,100041.21
2023-04-22T14:33:01.572Z,100042.46
2023-04-22T14:35:30.524Z,100036.70
2023-04-22T14:37:59.392Z,100039.90
2023-04-22T14:40:29.639Z,100040.41
2023-04-22T14:43:00.150Z,100039.19
2023-04-22T14:45:29.613Z,100035.65
2023-04-22T14:47:59.148Z,100035.64
2023-04-22T14:50:28.349Z,100033.61
2023-04-22T14:52:57.601Z,100033.58
2023-04-22T14:55:26.473Z,100029.98
2023-04-22T14:57:58.180Z,100029.98
2023-04-22T15:00:26.484Z,100026.80
2023-04-22T15:02:55.473Z,100022.90
2023-04-22T15:05:25.419Z,100022.86
2023-04-22T15:07:53.773Z,100025.66
2023-04-22T15:10:21.830Z,100019.00
2023-04-22T15:12:50.128Z,100020.56
2023-04-22T15:15:18.738Z,100014.84
2023-04-22T15:17:46.929Z,100014.71
2023-04-22T15:20:15.578Z,100016.27
2023-04-22T15:22:44.483Z,100011.16
2023-04-22T15:25:14.043Z,100013.23
2023-04-22T15:27:43.287Z,100011.91
2023-04-22T15:30:12.478Z,100011.35
2023-04-22T15:32:41.205Z,100013.17
2023-04-22T15:35:11.069Z,100008.47
2023-04-22T15:37:40.431Z,100012.35
2023-04-22T15:40:10.488Z,100011.45
2023-04-22T15:42:39.908Z,100012.43
2023-04-22T15:45:08.501Z,100009.68
2023-04-22T15:47:36.771Z,100006.11
2023-04-22T15:50:09.655Z,100006.05
2023-04-22T15:52:39.497Z,100005.34
2023-04-22T15:55:08.657Z,100003.30
2023-04-22T15:57:37.705Z,100001.42
2023-04-22T16:00:12.497Z,99998.96
2023-04-22T16:02:45.412Z,99998.73
2023-04-22T16:05:15.136Z,99992.96
2023-04-22T16:07:43.717Z,99996.72
2023-04-22T16:10:12.510Z,99991.73
2023-04-22T16:12:41.949Z,99990.16
2023-04-22T16:15:10.983Z,99992.27
2023-04-22T16:17:39.561Z,99989.15
2023-04-22T16:20:08.648Z,99985.67
2023-04-22T16:22:37.722Z,99981.85
2023-04-22T16:25:06.702Z,99987.08
2023-04-22T16:27:35.395Z,99985.64
2023-04-22T16:30:04.371Z,99984.31
2023-04-22T16:32:32.981Z,99985.65
2023-04-22T16:35:02.307Z,99985.09
2023-04-22T16:37:32.014Z,99983.26
2023-04-22T16:40:01.552Z,99977.00
2023-04-22T16:42:29.985Z,99977.62
2023-04-22T16:44:59.274Z,99975.11
2023-04-22T16:47:28.123Z,99971.55
2023-04-22T16:50:02.748Z,99968.66
2023-04-22T16:52:31.430Z,99969.05
2023-04-22T16:55:01.100Z,99967.34
2023-04-22T16:57:29.806Z,99969.14
2023-04-22T16:59:58.146Z,99971.17
2023-04-22T17:02:26.526Z,99966.86
2023-04-22T17:04:55.199Z,99966.85
2023-04-22T17:07:23.616Z,99969.04
2023-04-22T17:09:52.164Z,99968.64
2023-04-22T17:12:20.580Z,99969.90
2023-04-22T17:14:48.848Z,99970.30
2023-04-22T17:17:17.103Z,99973.61
2023-04-22T17:19:45.716Z,99974.40
2023-04-22T17:22:14.095Z,99974.04
2023-04-22T17:24:42.911Z,99969.42
2023-04-22T17:27:15.426Z,99969.35
2023-04-22T17:29:44.213Z,99968.27
2023-04-22T17:32:12.734Z,99969.06
2023-04-22T17:34:41.676Z,99970.11
2023-04-22T17:37:10.786Z,99967.36
2023-04-22T17:39:41.042Z,99970.20
2023-04-22T17:42:09.336Z,99970.02
2023-04-22T17:44:37.602Z,99975.40
2023-04-22T17:47:07.514Z,99973.68
2023-04-22T17:49:36.388Z,99972.38
2023-04-22T17:52:05.300Z,99973.44
2023-04-22T17:54:33.908Z,99974.52
2023-04-22T17:57:02.457Z,99978.09
2023-04-22T17:59:31.145Z,99976.43
2023-04-22T18:02:02.430Z,99982.08
2023-04-22T18:04:32.125Z,99985.29
2023-04-22T18:07:00.917Z,99980.42
2023-04-22T18:09:29.148Z,99988.19
2023-04-22T18:12:00.343Z,99988.91
2023-04-22T18:14:28.627Z,99990.63
2023-04-22T18:16:56.932Z,99994.27
2023-04-22T18:19:25.877Z,99992.20
2023-04-22T18:22:00.095Z,99993.11
2023-04-22T18:24:29.829Z,99993.02
2023-04-22T18:26:58.675Z,99997.88
2023-04-22T18:29:27.257Z,100001.15
2023-04-22T18:31:57.149Z,100003.25
2023-04-22T18:34:25.518Z,99999.98
2023-04-22T18:36:54.464Z,99999.40
2023-04-22T18:39:22.687Z,99998.31
2023-04-22T18:41:51.437Z,100001.31
2023-04-22T18:44:21.312Z,100001.48
2023-04-22T18:46:50.789Z,100000.55
2023-04-22T18:49:18.952Z,100005.02
2023-04-22T18:51:49.579Z,100006.38
2023-04-22T18:54:18.069Z,100009.45
2023-04-22T18:56:46.313Z,100003.98
2023-04-22T18:59:14.847Z,100004.80
2023-04-22T19:01:43.297Z,100000.17
2023-04-22T19:04:12.140Z,100003.10
2023-04-22T19:06:41.885Z,100001.02
2023-04-22T19:09:10.196Z,99996.40
2023-04-22T19:11:38.582Z,99992.54
2023-04-22T19:14:06.903Z,99998.20
2023-04-22T19:16:35.637Z,100001.76
2023-04-22T19:19:03.956Z,100001.80
2023-04-22T19:21:32.798Z,100001.42
2023-04-22T19:24:01.126Z,99999.05
2023-04-22T19:26:29.847Z,99999.93
2023-04-22T19:28:58.673Z,99999.92
2023-04-22T19:31:28.528Z,99999.34
2023-04-22T19:33:57.007Z,99999.20
2023-04-22T19:36:25.195Z,100001.02
2023-04-22T19:38:53.512Z,100001.58
2023-04-22T19:41:21.909Z,99999.41
2023-04-22T19:43:50.271Z,100000.41
2023-04-22T19:46:18.812Z,99999.96
2023-04-22T19:48:47.727Z,100000.38
2023-04-22T19:51:15.917Z,100001.13
2023-04-22T19:53:45.329Z,100002.26
2023-04-22T19:56:15.253Z,99999.48
2023-04-22T19:58:44.589Z,100001.48
2023-04-22T20:01:13.891Z,99997.75
2023-04-22T20:03:43.107Z,99997.88
2023-04-22T20:06:13.749Z,99999.16
2023-04-22T20:08:43.296Z,99996.59
2023-04-22T20:11:12.734Z,99993.18
2023-04-22T20:13:42.845Z,99991.50
2023-04-22T20:16:13.316Z,99989.46
2023-04-22T20:18:42.493Z,99988.27
2023-04-22T20:21:11.899Z,99988.55
2023-04-22T20:23:42.011Z,99985.15
2023-04-22T20:26:12.070Z,99982.91
2023-04-22T20:28:48.487Z,99983.20
2023-04-22T20:31:23.476Z,99981.83
2023-04-22T20:33:52.156Z,99980.52
2023-04-22T20:36:23.200Z,99978.75
2023-04-22T20:38:55.233Z,99975.74
2023-04-22T20:41:25.370Z,99975.12
2023-04-22T20:43:53.836Z,99977.91
2023-04-22T20:46:23.728Z,99979.00
2023-04-22T20:48:53.384Z,99975.66
2023-04-22T20:51:22.323Z,99978.88
2023-04-22T20:53:51.502Z,99971.89
2023-04-22T20:56:22.015Z,99976.61
2023-04-22T20:58:50.996Z,99972.48
2023-04-22T21:01:19.963Z,99973.00
2023-04-22T21:03:53.562Z,99970.61
2023-04-22T21:06:23.293Z,99976.39
2023-04-22T21:08:53.448Z,99972.93
2023-04-22T21:11:22.393Z,99974.88
2023-04-22T21:13:52.972Z,99970.65
2023-04-22T21:16:27.849Z,99970.45
2023-04-22T21:19:01.547Z,99968.50
2023-04-22T21:21:37.310Z,99974.23
2023-04-22T21:24:07.415Z,99969.23
2023-04-22T21:26:36.998Z,99964.52
2023-04-22T21:29:06.885Z,99965.49
2023-04-22T21:31:35.762Z,99962.54
2023-04-22T21:34:07.383Z,99966.16
2023-04-22T21:36:36.307Z,99964.11
2023-04-22T21:39:05.254Z,99961.84
2023-04-22T21:41:33.779Z,99958.94
2023-04-22T21:44:02.793Z,99963.94
2023-04-22T21:46:32.020Z,99962.63
2023-04-22T21:49:01.536Z,99961.36
2023-04-22T21:51:32.066Z,99965.64
2023-04-22T21:54:01.518Z,99965.18
2023-04-22T21:56:34.113Z,99963.23
2023-04-22T21:59:03.653Z,99967.84
2023-04-22T22:01:32.429Z,99964.38
2023-04-22T22:04:01.710Z,99963.20
2023-04-22T22:06:34.646Z,99962.75
2023-04-22T22:09:03.230Z,99961.88
2023-04-22T22:11:31.790Z,99962.79
2023-04-22T22:14:00.901Z,99959.47
2023-04-22T22:16:30.009Z,99960.64
2023-04-22T22:18:59.091Z,99966.05
2023-04-22T22:21:28.458Z,99965.83
2023-04-22T22:23:58.366Z,99964.89
2023-04-22T22:26:28.203Z,99964.34
2023-04-22T22:28:57.305Z,99964.11
2023-04-22T22:31:26.486Z,99962.04
2023-04-22T22:33:55.666Z,99965.05
2023-04-22T22:36:26.056Z,99963.66
2023-04-22T22:38:55.816Z,99962.44
2023-04-22T22:41:25.094Z,99962.97
2023-04-22T22:43:54.181Z,99962.30
2023-04-22T22:46:23.859Z,99960.27
2023-04-22T22:48:53.015Z,99962.25
2023-04-22T22:51:21.345Z,99961.24
2023-04-22T22:53:50.198Z,99959.19
2023-04-22T22:56:21.467Z,99960.27
2023-04-22T22:58:50.668Z,99957.59
2023-04-22T23:01:19.876Z,99956.03
2023-04-22T23:03:49.242Z,99961.36
2023-04-22T23:06:19.156Z,99958.73
2023-04-22T23:08:48.609Z,99959.65
2023-04-22T23:11:17.502Z,99959.20
2023-04-22T23:13:47.272Z,99956.48
2023-04-22T23:16:17.393Z,99955.13
2023-04-22T23:18:46.936Z,99954.00
2023-04-22T23:21:19.703Z,99951.07
2023-04-22T23:23:49.321Z,99954.71
2023-04-22T23:26:18.778Z,99948.92
2023-04-22T23:28:47.547Z,99947.05
2023-04-22T23:31:17.841Z,99946.70
2023-04-22T23:33:49.668Z,99946.20
2023-04-22T23:36:22.922Z,99944.22
2023-04-22T23:38:51.730Z,99942.86
2023-04-22T23:41:20.152Z,99942.80
2023-04-22T23:43:49.506Z,99943.27
2023-04-22T23:46:18.861Z,99939.68
2023-04-22T23:48:48.549Z,99935.29
2023-04-22T23:51:17.676Z,99938.17
2023-04-22T23:53:47.110Z,99938.57
2023-04-22T23:56:21.236Z,99936.55
2023-04-22T23:58:51.610Z,99935.98
